Date,TemperatureHighF,TemperatureAvgF,TemperatureLowF,DewpointHighF,DewpointAvgF,DewpointLowF,HumidityHigh,HumidityAvg,HumidityLow,PressureMaxIn,PressureMinIn,WindSpeedMaxMPH,WindSpeedAvgMPH,GustSpeedMaxMPH,PrecipitationSumIn
2013-3-1,70.7,57.8,49.3,32.4,27.4,23.2,39,32,22,30.30,30.12,7,2,10,0.00
2013-3-2,70.5,62.1,55.0,31.1,24.0,17.0,35,24,14,30.15,29.94,12,2,13,0.00
2013-3-3,57.7,52.6,47.1,40.2,33.8,30.0,64,49,35,29.97,29.88,6,1,11,0.00
2013-3-4,65.3,52.5,44.6,39.8,34.3,29.8,70,52,31,29.97,29.88,10,2,10,44.57
2013-3-5,60.3,52.5,46.9,36.0,30.2,22.2,60,43,29,29.91,29.71,13,4,19,0.00
2013-3-6,47.5,42.7,39.7,40.6,32.3,21.7,95,68,37,29.91,29.74,14,4,18,0.42
2013-3-7,47.8,42.2,39.2,35.5,29.0,25.5,83,60,42,29.82,29.68,8,1,11,0.08
2013-3-8,54.7,45.0,38.5,33.5,27.2,22.0,75,51,30,29.88,29.59,10,2,12,0.00
2013-3-9,62.1,48.5,38.1,34.1,26.8,6.3,77,47,16,30.12,29.85,12,3,15,0.00
2013-3-10,62.2,49.3,39.7,32.8,28.3,18.6,59,45,28,30.18,30.06,7,2,8,0.00
2013-3-11,68.4,54.8,47.5,34.5,29.8,23.6,52,39,23,30.12,29.97,8,2,9,0.00
2013-3-12,72.5,59.7,52.0,38.3,33.8,29.6,45,38,25,30.03,29.94,6,1,9,0.00
2013-3-13,77.2,64.9,57.0,38.5,29.6,15.4,39,28,10,30.06,29.97,9,1,14,0.00
2013-3-14,74.7,65.6,57.6,38.5,28.3,15.9,48,26,14,30.03,29.94,6,2,10,0.00
2013-3-15,70.7,61.7,55.0,38.4,33.5,27.2,51,35,25,29.97,29.88,6,2,8,0.00
2013-3-16,68.7,59.3,53.1,36.7,28.2,20.1,47,31,17,29.94,29.88,9,2,13,0.00
2013-3-17,65.8,56.6,50.5,27.0,22.9,18.0,36,27,18,29.97,29.88,8,2,10,0.00
2013-3-18,65.5,56.6,50.4,28.4,23.9,17.7,38,29,18,29.97,29.88,7,1,10,0.00
2013-3-19,67.1,57.9,47.5,43.8,28.9,11.5,84,35,13,30.03,29.91,8,2,12,0.08
2013-3-20,59.2,51.6,47.1,44.0,40.4,31.0,84,67,39,30.00,29.94,10,2,11,45.40
2013-3-21,60.3,50.9,45.1,46.7,37.8,25.4,89,64,37,29.97,29.82,10,3,11,33.63
2013-3-22,59.5,50.5,43.7,32.3,16.3,8.0,58,28,17,29.91,29.82,10,3,13,0.00
2013-3-23,64.9,52.5,43.2,25.0,16.7,11.0,31,24,15,29.97,29.88,8,2,10,0.00
2013-3-24,69.3,57.2,48.6,26.6,20.0,13.4,29,24,17,29.97,29.82,8,2,9,0.00
2013-3-25,67.6,58.2,50.5,31.4,25.5,22.6,47,29,20,29.88,29.76,10,2,12,0.00
2013-3-26,67.5,55.8,46.8,35.4,29.9,25.4,54,38,23,29.85,29.76,8,2,11,0.00
2013-3-27,65.7,55.3,49.8,40.4,32.9,27.5,70,44,28,29.88,29.76,8,2,11,0.00
2013-3-28,65.7,55.6,47.8,43.0,39.0,35.3,80,56,34,29.97,29.88,8,2,12,0.00
2013-3-29,74.3,62.3,54.5,35.2,30.0,25.3,46,30,21,29.97,29.88,9,2,10,0.00
2013-3-30,72.7,62.5,52.9,40.9,31.3,23.2,57,32,22,29.94,29.82,11,2,13,0.00
2013-3-31,60.6,52.1,47.7,45.2,40.0,30.9,87,66,35,29.94,29.82,11,3,15,0.92